Time;durP1;ratioP1;P1;durP2;ratioP2;P2;SDS_P1;SDS_P2;PMS_P1;PMS_P2;Temp;Humidity;BMP_temperature;BMP_pressure;BME280_temperature;BME280_humidity;BME280_pressure;Samples;Min_cycle;Max_cycle;Signal;HPM_P1;HPM_P2
2021/12/23 00:00:08;;;;;;;17.73;13.53;;;1.90;99.90;;;;;;4993440;28;20435;-68
2021/12/23 00:02:34;;;;;;;19.77;13.30;;;1.90;99.90;;;;;;4992927;28;20514;-67
2021/12/23 00:04:59;;;;;;;16.83;11.40;;;1.80;99.90;;;;;;4995868;28;20565;-68
2021/12/23 00:07:25;;;;;;;17.17;12.07;;;1.80;99.90;;;;;;4996561;28;20200;-70
2021/12/23 00:10:06;;;;;;;19.03;12.57;;;1.80;99.90;;;;;;4997002;28;20579;-68
2021/12/23 00:12:33;;;;;;;18.47;11.83;;;1.70;99.90;;;;;;4994303;28;20314;-68
2021/12/23 00:14:59;;;;;;;19.43;13.37;;;1.70;99.90;;;;;;4988047;28;20900;-69
2021/12/23 00:23:22;;;;;;;16.13;11.83;;;1.90;99.90;;;;;;4996114;28;20176;-69
2021/12/23 00:25:29;;;;;;;17.43;12.07;;;1.80;99.90;;;;;;4977518;28;20442;-67
2021/12/23 00:27:54;;;;;;;17.37;12.10;;;1.80;99.90;;;;;;4976130;28;20878;-68
2021/12/23 00:30:20;;;;;;;18.50;13.40;;;1.70;99.90;;;;;;4978086;28;20260;-68
2021/12/23 00:32:45;;;;;;;20.40;14.00;;;1.60;99.90;;;;;;4975240;28;20169;-68
2021/12/23 00:35:11;;;;;;;16.60;12.13;;;1.60;99.90;;;;;;4986218;28;20224;-68
2021/12/23 00:37:41;;;;;;;20.40;13.27;;;1.60;99.90;;;;;;4995181;28;20243;-68
2021/12/23 00:40:11;;;;;;;17.37;12.50;;;1.70;99.90;;;;;;4986186;28;20176;-67
2021/12/23 00:42:37;;;;;;;18.50;13.57;;;1.60;99.90;;;;;;4975123;28;20417;-69
2021/12/23 00:45:04;;;;;;;21.90;14.43;;;1.60;99.90;;;;;;4974389;28;20996;-68
2021/12/23 00:47:30;;;;;;;19.80;13.17;;;1.70;99.90;;;;;;4975775;28;20983;-68
2021/12/23 00:49:56;;;;;;;19.00;13.43;;;1.70;99.90;;;;;;4976996;28;20424;-68
2021/12/23 00:52:28;;;;;;;21.87;14.73;;;1.70;99.90;;;;;;4975757;28;20639;-68
2021/12/23 00:54:54;;;;;;;20.50;13.90;;;1.60;99.90;;;;;;4975613;28;20400;-68
2021/12/23 00:57:26;;;;;;;20.00;14.27;;;1.50;99.90;;;;;;4989747;28;20429;-68
2021/12/23 00:59:52;;;;;;;17.20;14.73;;;1.50;99.90;;;;;;4995611;28;20607;-69
2021/12/23 01:02:18;;;;;;;19.60;13.03;;;1.60;99.90;;;;;;4993676;28;20795;-68
2021/12/23 01:04:43;;;;;;;20.20;13.87;;;1.60;99.90;;;;;;4995278;28;20442;-68
2021/12/23 01:07:09;;;;;;;21.57;13.50;;;1.60;99.90;;;;;;4994827;28;20688;-68
2021/12/23 01:09:35;;;;;;;18.60;13.93;;;1.60;99.90;;;;;;4995155;28;20552;-68
2021/12/23 01:12:01;;;;;;;19.10;13.47;;;1.70;99.90;;;;;;4993154;28;20180;-68
2021/12/23 01:14:38;;;;;;;18.30;11.97;;;1.70;99.90;;;;;;4992138;28;20404;-68
2021/12/23 01:17:23;;;;;;;19.03;13.43;;;1.70;99.90;;;;;;4993601;28;20274;-68
2021/12/23 01:19:51;;;;;;;19.27;14.80;;;1.70;99.90;;;;;;4975171;28;20413;-69
2021/12/23 01:22:18;;;;;;;18.57;13.37;;;1.60;99.90;;;;;;4981167;28;20423;-68
2021/12/23 01:24:44;;;;;;;18.50;13.63;;;1.60;99.90;;;;;;4994977;28;20411;-67
2021/12/23 01:27:10;;;;;;;18.47;13.87;;;1.60;99.90;;;;;;4994531;28;20538;-69
2021/12/23 01:29:35;;;;;;;20.37;13.50;;;1.60;99.90;;;;;;4996319;28;20447;-68
2021/12/23 01:32:04;;;;;;;19.90;14.20;;;1.70;99.90;;;;;;4997811;28;20525;-68
2021/12/23 01:34:30;;;;;;;23.63;14.00;;;1.60;99.90;;;;;;4994011;28;20527;-68
2021/12/23 01:36:56;;;;;;;18.77;14.23;;;1.70;99.90;;;;;;5011360;23;21021;-70
2021/12/23 01:39:22;;;;;;;20.50;14.40;;;1.70;99.90;;;;;;4984143;28;20440;-70
2021/12/23 01:41:48;;;;;;;24.50;14.43;;;1.80;99.90;;;;;;4978434;28;20432;-70
2021/12/23 01:44:13;;;;;;;20.63;12.97;;;1.90;99.90;;;;;;4992169;28;20263;-70
2021/12/23 01:46:39;;;;;;;22.07;13.57;;;1.90;99.90;;;;;;4997677;28;20208;-70
2021/12/23 01:49:05;;;;;;;23.83;13.37;;;1.90;99.90;;;;;;4997574;28;20184;-70
2021/12/23 01:51:30;;;;;;;19.93;14.20;;;1.90;99.90;;;;;;4997245;28;20235;-69
2021/12/23 01:53:56;;;;;;;20.27;13.67;;;1.90;99.90;;;;;;4998562;28;20423;-70
2021/12/23 01:56:24;;;;;;;20.03;13.87;;;1.80;99.90;;;;;;4997460;28;20204;-70
2021/12/23 01:58:50;;;;;;;24.57;14.50;;;1.80;99.90;;;;;;4997682;28;20172;-69
2021/12/23 02:01:15;;;;;;;21.00;14.33;;;1.70;99.90;;;;;;4997214;28;20819;-69
2021/12/23 02:03:41;;;;;;;24.13;15.23;;;1.70;99.90;;;;;;4997925;28;20483;-70
2021/12/23 02:06:07;;;;;;;21.50;14.33;;;1.60;99.90;;;;;;4997622;28;20247;-71
2021/12/23 02:08:34;;;;;;;20.07;14.70;;;1.50;99.90;;;;;;4997180;28;20442;-71
2021/12/23 02:11:02;;;;;;;20.53;14.77;;;1.50;99.90;;;;;;4996504;28;20415;-69
2021/12/23 02:13:28;;;;;;;22.83;15.00;;;1.60;99.90;;;;;;4995428;28;20471;-69
2021/12/23 02:15:53;;;;;;;24.90;15.30;;;1.60;99.90;;;;;;5009486;28;20489;-70
2021/12/23 02:18:20;;;;;;;20.50;15.47;;;1.60;99.90;;;;;;5010088;28;20479;-70
2021/12/23 02:20:46;;;;;;;21.63;14.63;;;1.50;99.90;;;;;;5002787;28;20168;-71
2021/12/23 02:23:12;;;;;;;20.43;14.03;;;1.50;99.90;;;;;;4998463;28;20427;-70
2021/12/23 02:25:38;;;;;;;25.07;15.17;;;1.50;99.90;;;;;;4997038;28;20172;-70
2021/12/23 02:28:07;;;;;;;20.93;15.03;;;1.50;99.90;;;;;;4997374;28;20418;-71
2021/12/23 02:30:35;;;;;;;21.53;15.17;;;1.50;99.90;;;;;;4997213;28;20172;-71
2021/12/23 02:33:01;;;;;;;21.53;16.50;;;1.60;99.90;;;;;;4998625;28;20474;-70
2021/12/23 02:35:27;;;;;;;21.17;14.30;;;1.70;99.90;;;;;;4996828;28;20403;-69
2021/12/23 02:37:52;;;;;;;20.37;14.60;;;1.70;99.90;;;;;;4996867;28;20226;-70
2021/12/23 02:40:48;;;;;;;20.20;15.40;;;1.70;99.90;;;;;;4988894;28;20418;-70
2021/12/23 02:43:23;;;;;;;21.13;15.40;;;1.70;99.90;;;;;;4917216;29;21007;-70
2021/12/23 02:45:51;;;;;;;21.17;14.87;;;1.70;99.90;;;;;;4916327;29;20438;-70
2021/12/23 02:48:20;;;;;;;21.47;15.60;;;1.70;99.90;;;;;;4915987;29;20837;-69
2021/12/23 02:50:48;;;;;;;23.80;15.60;;;1.60;99.90;;;;;;4914212;29;20434;-70
2021/12/23 02:53:15;;;;;;;21.70;16.43;;;1.50;99.90;;;;;;4916722;29;20460;-71
2021/12/23 02:55:40;;;;;;;22.57;15.80;;;1.60;99.90;;;;;;4916328;29;20415;-69
2021/12/23 02:58:06;;;;;;;20.70;14.90;;;1.60;99.90;;;;;;4917040;29;20422;-69
2021/12/23 03:00:33;;;;;;;22.27;15.93;;;1.60;99.90;;;;;;4914449;29;20188;-69
2021/12/23 03:02:59;;;;;;;24.40;16.90;;;1.60;99.90;;;;;;4917138;29;20179;-69
2021/12/23 03:05:25;;;;;;;24.03;15.67;;;1.60;99.90;;;;;;4917042;29;20182;-72
2021/12/23 03:07:51;;;;;;;20.73;14.77;;;1.60;99.90;;;;;;4916234;29;20654;-70
2021/12/23 03:10:16;;;;;;;24.70;16.33;;;1.60;99.90;;;;;;4916102;29;20494;-69
2021/12/23 03:12:42;;;;;;;21.33;15.40;;;1.50;99.90;;;;;;4913616;29;20686;-70
2021/12/23 03:15:08;;;;;;;24.40;16.73;;;1.50;99.90;;;;;;4914546;29;20236;-69
2021/12/23 03:17:34;;;;;;;22.83;15.40;;;1.50;99.90;;;;;;4915954;29;20451;-70
2021/12/23 03:20:00;;;;;;;29.93;16.80;;;1.50;99.90;;;;;;4982404;28;20195;-70
2021/12/23 03:22:26;;;;;;;23.80;14.97;;;1.50;99.90;;;;;;5013025;28;20823;-69
2021/12/23 03:24:52;;;;;;;25.73;15.93;;;1.60;99.90;;;;;;5015691;28;20422;-71
2021/12/23 03:27:17;;;;;;;20.80;15.50;;;1.70;99.90;;;;;;5014773;28;20337;-70
2021/12/23 03:29:43;;;;;;;24.47;15.10;;;1.90;99.90;;;;;;5014872;28;20208;-71
2021/12/23 03:32:08;;;;;;;23.23;16.77;;;1.90;99.90;;;;;;5013816;28;20183;-71
2021/12/23 03:34:34;;;;;;;23.77;15.27;;;1.80;99.90;;;;;;5014202;28;20215;-70
2021/12/23 03:36:59;;;;;;;23.40;16.67;;;1.80;99.90;;;;;;5014241;28;20211;-70
2021/12/23 03:39:26;;;;;;;22.67;16.20;;;1.70;99.90;;;;;;5014188;28;20184;-71
2021/12/23 03:41:52;;;;;;;24.23;15.83;;;1.70;99.90;;;;;;5014896;28;20225;-70
2021/12/23 03:44:17;;;;;;;23.37;15.57;;;1.70;99.90;;;;;;5012698;28;20426;-69
2021/12/23 03:46:43;;;;;;;28.07;16.40;;;1.70;99.90;;;;;;5001139;28;20681;-68
2021/12/23 03:49:09;;;;;;;20.87;16.13;;;1.70;99.90;;;;;;4995312;28;20196;-70
2021/12/23 03:51:35;;;;;;;25.77;16.50;;;1.70;99.90;;;;;;4998194;28;20606;-70
2021/12/23 03:54:01;;;;;;;29.53;17.00;;;1.70;99.90;;;;;;4999350;28;20909;-69
2021/12/23 03:56:27;;;;;;;25.50;16.50;;;1.60;99.90;;;;;;4998872;28;20447;-71
2021/12/23 03:58:54;;;;;;;21.97;15.23;;;1.50;99.90;;;;;;4998771;28;21027;-70
2021/12/23 04:01:25;;;;;;;22.40;16.47;;;1.50;99.90;;;;;;4998246;28;20519;-70
2021/12/23 04:03:51;;;;;;;24.43;16.77;;;1.50;99.90;;;;;;4999233;28;20408;-69
2021/12/23 04:06:17;;;;;;;27.47;17.10;;;1.60;99.90;;;;;;4999282;28;20459;-70
2021/12/23 04:08:43;;;;;;;24.27;17.00;;;1.50;99.90;;;;;;4998639;28;20446;-69
2021/12/23 04:11:09;;;;;;;26.17;17.50;;;1.50;99.90;;;;;;4998307;28;20785;-69
2021/12/23 04:13:34;;;;;;;21.97;17.70;;;1.50;99.90;;;;;;4998179;28;20262;-70
2021/12/23 04:16:00;;;;;;;24.57;16.13;;;1.40;99.90;;;;;;4999669;28;20479;-69
2021/12/23 04:18:25;;;;;;;27.20;16.57;;;1.40;99.90;;;;;;4999397;28;20646;-70
2021/12/23 04:20:54;;;;;;;21.97;16.57;;;1.40;99.90;;;;;;4998505;28;20255;-70
2021/12/23 04:23:30;;;;;;;25.97;17.47;;;1.50;99.90;;;;;;4997670;28;20641;-70
2021/12/23 04:25:57;;;;;;;24.23;15.90;;;1.50;99.90;;;;;;4999340;28;20511;-70
2021/12/23 04:28:24;;;;;;;26.07;16.60;;;1.50;99.90;;;;;;4998812;28;20757;-69
2021/12/23 04:30:49;;;;;;;26.30;18.00;;;1.60;99.90;;;;;;4998566;28;20490;-70
2021/12/23 04:33:16;;;;;;;23.27;16.90;;;1.60;99.90;;;;;;4998181;28;20501;-69
2021/12/23 04:35:41;;;;;;;29.27;17.03;;;1.70;99.90;;;;;;4997856;28;20183;-70
2021/12/23 04:38:07;;;;;;;25.00;16.50;;;1.60;99.90;;;;;;5014980;28;20426;-70
2021/12/23 04:40:36;;;;;;;25.53;15.73;;;1.70;99.90;;;;;;5008893;28;20230;-71
2021/12/23 04:43:06;;;;;;;23.10;16.77;;;1.70;99.90;;;;;;4998623;28;20263;-72
2021/12/23 04:45:32;;;;;;;23.97;16.53;;;1.70;99.90;;;;;;4998791;28;20408;-71
2021/12/23 04:47:57;;;;;;;25.73;16.73;;;1.50;99.90;;;;;;4999539;28;20508;-70
2021/12/23 04:50:23;;;;;;;22.57;16.43;;;1.40;99.90;;;;;;5014244;28;20927;-72
2021/12/23 04:52:49;;;;;;;25.27;16.30;;;1.40;99.90;;;;;;5018333;28;20174;-71
2021/12/23 04:55:15;;;;;;;26.43;17.20;;;1.40;99.90;;;;;;5017812;28;20538;-71
2021/12/23 04:57:41;;;;;;;23.90;16.03;;;1.30;99.90;;;;;;5000590;28;20697;-72
2021/12/23 05:00:14;;;;;;;25.80;17.50;;;1.30;99.90;;;;;;4998233;28;20412;-72
2021/12/23 05:02:39;;;;;;;22.50;15.27;;;1.30;99.90;;;;;;4997132;28;21004;-70
2021/12/23 05:05:06;;;;;;;20.70;15.80;;;1.20;99.90;;;;;;4996051;28;20442;-71
2021/12/23 05:07:31;;;;;;;26.03;16.80;;;1.10;99.90;;;;;;4996132;28;20243;-72
2021/12/23 05:09:57;;;;;;;25.30;17.03;;;1.20;99.90;;;;;;4978186;28;20779;-70
2021/12/23 05:12:22;;;;;;;23.50;16.67;;;1.10;99.90;;;;;;4977658;28;20173;-70
2021/12/23 05:14:48;;;;;;;29.17;17.67;;;1.10;99.90;;;;;;4977841;28;20184;-70
2021/12/23 05:17:14;;;;;;;26.93;18.70;;;1.10;99.90;;;;;;4983593;28;20219;-70
2021/12/23 05:19:39;;;;;;;28.67;17.03;;;1.20;99.90;;;;;;4997108;28;20176;-69
2021/12/23 05:22:05;;;;;;;23.40;17.13;;;1.20;99.90;;;;;;4997606;28;20251;-69
2021/12/23 05:24:30;;;;;;;24.00;16.27;;;1.30;99.90;;;;;;4997400;28;20176;-70
2021/12/23 05:26:56;;;;;;;25.80;17.70;;;1.40;99.90;;;;;;4997691;28;20652;-69
2021/12/23 05:29:22;;;;;;;26.30;17.57;;;1.40;99.90;;;;;;4998498;28;20240;-70
2021/12/23 05:31:47;;;;;;;27.00;18.17;;;1.40;99.90;;;;;;4997352;28;20184;-70
2021/12/23 05:34:13;;;;;;;25.17;17.17;;;1.40;99.90;;;;;;4997190;28;20183;-70
2021/12/23 05:36:38;;;;;;;24.93;17.47;;;1.40;99.90;;;;;;4997034;28;20211;-70
2021/12/23 05:39:04;;;;;;;25.40;17.40;;;1.30;99.90;;;;;;5003938;28;20246;-70
2021/12/23 05:41:29;;;;;;;33.73;18.07;;;1.30;99.90;;;;;;4998149;28;20243;-69
2021/12/23 05:43:56;;;;;;;26.23;17.33;;;1.20;99.90;;;;;;4997690;28;20180;-70
2021/12/23 05:46:22;;;;;;;25.20;17.90;;;1.20;99.90;;;;;;4997600;28;20286;-70
2021/12/23 05:48:48;;;;;;;23.47;17.10;;;1.20;99.90;;;;;;4998749;28;20458;-71
2021/12/23 05:51:14;;;;;;;25.80;17.13;;;1.30;99.90;;;;;;4980829;28;20427;-70
2021/12/23 05:53:39;;;;;;;26.30;16.73;;;1.30;99.90;;;;;;4998159;28;20179;-72
2021/12/23 05:56:05;;;;;;;27.10;16.30;;;1.30;99.90;;;;;;4997146;28;20199;-71
2021/12/23 05:58:31;;;;;;;24.40;16.60;;;1.40;99.90;;;;;;4998899;28;20729;-70
2021/12/23 06:00:57;;;;;;;28.20;18.73;;;1.30;99.90;;;;;;4998184;28;20458;-70
2021/12/23 06:03:24;;;;;;;27.20;18.17;;;1.30;99.90;;;;;;4996523;28;20180;-70
2021/12/23 06:05:51;;;;;;;28.27;18.03;;;1.30;99.90;;;;;;4996323;28;20470;-70
2021/12/23 06:08:16;;;;;;;26.53;18.63;;;1.30;99.90;;;;;;4998033;28;20451;-71
2021/12/23 06:10:42;;;;;;;25.23;19.50;;;1.30;99.90;;;;;;4995546;28;20411;-70
2021/12/23 06:13:07;;;;;;;27.47;17.90;;;1.40;99.90;;;;;;4996080;28;20404;-69
2021/12/23 06:15:33;;;;;;;26.17;18.13;;;1.50;99.90;;;;;;5001966;28;20701;-70
2021/12/23 06:17:59;;;;;;;28.23;18.43;;;1.60;99.90;;;;;;4976755;28;20208;-72
2021/12/23 06:20:24;;;;;;;28.63;17.80;;;1.70;99.90;;;;;;5001409;28;20219;-69
2021/12/23 06:22:51;;;;;;;24.50;18.20;;;1.80;99.90;;;;;;5008254;28;20202;-70
2021/12/23 06:25:17;;;;;;;23.80;17.40;;;1.90;99.90;;;;;;4992085;28;20800;-70
2021/12/23 06:27:43;;;;;;;27.23;18.57;;;1.90;99.90;;;;;;4994312;28;20490;-71
2021/12/23 06:30:16;;;;;;;27.13;18.13;;;2.00;99.90;;;;;;4985197;28;20275;-70
2021/12/23 06:32:42;;;;;;;27.47;18.37;;;1.90;99.90;;;;;;4993470;28;20458;-73
2021/12/23 06:35:10;;;;;;;29.80;19.70;;;2.00;99.90;;;;;;4995552;28;20531;-68
2021/12/23 06:37:36;;;;;;;23.70;17.50;;;2.00;99.90;;;;;;4992113;28;20471;-70
2021/12/23 06:40:03;;;;;;;29.27;19.50;;;2.10;99.90;;;;;;4995492;28;20462;-71
2021/12/23 06:42:28;;;;;;;25.70;18.40;;;2.00;99.90;;;;;;5000584;28;20446;-71
2021/12/23 06:44:54;;;;;;;25.13;17.83;;;1.90;99.90;;;;;;4995838;28;20458;-70
2021/12/23 06:47:19;;;;;;;26.00;17.83;;;1.80;99.90;;;;;;4990141;28;20251;-75
2021/12/23 06:49:47;;;;;;;26.93;17.50;;;1.90;99.90;;;;;;4995002;28;20224;-71
2021/12/23 06:52:13;;;;;;;25.47;17.70;;;1.80;99.90;;;;;;4996529;28;20668;-70
2021/12/23 06:54:42;;;;;;;24.37;17.47;;;1.90;99.90;;;;;;4994781;28;20477;-71
2021/12/23 06:57:08;;;;;;;26.63;16.90;;;2.00;99.90;;;;;;4994208;28;20459;-71
2021/12/23 06:59:34;;;;;;;26.80;17.13;;;2.00;99.90;;;;;;4995111;28;20886;-69
2021/12/23 07:02:00;;;;;;;25.13;16.07;;;1.90;99.90;;;;;;4999317;28;20310;-71
2021/12/23 07:04:30;;;;;;;25.10;18.00;;;2.00;99.90;;;;;;4981727;28;20553;-70
2021/12/23 07:07:09;;;;;;;25.10;17.70;;;2.00;99.90;;;;;;4976927;28;20238;-70
2021/12/23 07:09:36;;;;;;;25.80;17.57;;;1.90;99.90;;;;;;4973372;28;20436;-71
2021/12/23 07:12:03;;;;;;;25.30;17.10;;;2.00;99.90;;;;;;4992601;28;20479;-69
2021/12/23 07:14:29;;;;;;;25.57;17.80;;;2.10;99.90;;;;;;4990621;28;20470;-70
2021/12/23 07:16:54;;;;;;;27.83;18.80;;;2.10;99.90;;;;;;4990664;28;20491;-70
2021/12/23 07:19:20;;;;;;;28.63;17.70;;;2.20;99.90;;;;;;5003502;28;20211;-69
2021/12/23 07:21:45;;;;;;;31.17;18.17;;;2.20;99.90;;;;;;5008724;28;20974;-69
2021/12/23 07:24:11;;;;;;;24.30;16.37;;;2.30;99.90;;;;;;5007320;28;20641;-70
2021/12/23 07:26:36;;;;;;;24.87;17.37;;;2.40;99.90;;;;;;5012970;28;20233;-69
2021/12/23 07:29:03;;;;;;;24.17;16.97;;;2.50;99.90;;;;;;5011670;28;20206;-70
2021/12/23 07:31:28;;;;;;;24.93;17.83;;;2.40;99.90;;;;;;4994748;28;20294;-70
2021/12/23 07:33:54;;;;;;;23.00;15.43;;;2.50;99.90;;;;;;4995281;28;21160;-69
2021/12/23 07:36:22;;;;;;;23.70;16.43;;;2.50;99.90;;;;;;4993870;28;20239;-70
2021/12/23 07:38:48;;;;;;;25.93;16.23;;;2.60;99.90;;;;;;4993985;28;20299;-69
2021/12/23 07:41:14;;;;;;;23.27;16.53;;;2.60;99.90;;;;;;4995377;28;20405;-70
2021/12/23 07:46:06;;;;;;;24.20;17.20;;;2.50;99.90;;;;;;5002250;28;20213;-70
2021/12/23 07:48:32;;;;;;;21.40;15.80;;;2.50;99.90;;;;;;4978394;28;20792;-69
2021/12/23 07:50:59;;;;;;;22.20;15.07;;;2.60;99.90;;;;;;4995224;28;20423;-70
2021/12/23 07:53:25;;;;;;;23.43;16.23;;;2.60;99.90;;;;;;4993132;28;20188;-69
2021/12/23 07:55:50;;;;;;;23.30;17.57;;;2.60;99.90;;;;;;4995281;28;20601;-69
2021/12/23 07:58:17;;;;;;;23.63;16.70;;;2.60;99.90;;;;;;4992586;28;20184;-70
2021/12/23 08:00:43;;;;;;;23.80;16.57;;;2.70;99.90;;;;;;4995146;28;20194;-70
2021/12/23 08:03:08;;;;;;;23.57;16.47;;;2.70;99.90;;;;;;4994820;28;20430;-69
2021/12/23 08:05:34;;;;;;;23.40;16.00;;;2.70;99.90;;;;;;4994971;28;20815;-68
2021/12/23 08:08:00;;;;;;;22.63;16.50;;;2.70;99.90;;;;;;4992032;28;20214;-70
2021/12/23 08:10:26;;;;;;;23.00;16.90;;;2.80;99.90;;;;;;4993977;28;20184;-70
2021/12/23 08:12:52;;;;;;;23.03;16.00;;;2.80;99.90;;;;;;4995481;28;20782;-70
2021/12/23 08:15:17;;;;;;;24.10;15.97;;;2.80;99.90;;;;;;4995739;28;20184;-72
2021/12/23 08:17:43;;;;;;;27.90;18.00;;;2.80;99.90;;;;;;4995652;28;20227;-72
2021/12/23 08:20:14;;;;;;;23.83;16.20;;;2.80;99.90;;;;;;4994766;28;20184;-71
2021/12/23 08:22:40;;;;;;;24.30;16.30;;;2.80;99.90;;;;;;4994162;28;20184;-71
2021/12/23 08:25:06;;;;;;;26.37;18.37;;;2.70;99.90;;;;;;4976865;28;21022;-70
2021/12/23 08:27:34;;;;;;;26.00;17.37;;;2.70;99.90;;;;;;4993139;28;20467;-68
2021/12/23 08:30:00;;;;;;;25.23;17.50;;;2.60;99.90;;;;;;4993618;28;20445;-71
2021/12/23 08:32:25;;;;;;;23.37;17.33;;;2.50;99.90;;;;;;4996882;28;20491;-70
2021/12/23 08:34:51;;;;;;;26.83;16.50;;;2.50;99.90;;;;;;5002628;28;20184;-70
2021/12/23 08:37:17;;;;;;;28.23;17.40;;;2.50;99.90;;;;;;4994555;28;20248;-70
2021/12/23 08:39:43;;;;;;;24.57;16.70;;;2.60;99.90;;;;;;4996312;28;20314;-70
2021/12/23 08:42:10;;;;;;;26.50;15.97;;;2.60;99.90;;;;;;4990981;28;20489;-71
2021/12/23 08:44:36;;;;;;;22.53;16.70;;;2.60;99.90;;;;;;4992483;28;20491;-72
2021/12/23 08:47:02;;;;;;;28.07;18.47;;;2.60;99.90;;;;;;4992443;28;20480;-69
2021/12/23 08:49:28;;;;;;;23.53;15.60;;;2.60;99.90;;;;;;4994358;28;20420;-70
2021/12/23 08:51:54;;;;;;;25.13;16.73;;;2.70;99.90;;;;;;4976786;28;20431;-71
2021/12/23 08:54:20;;;;;;;21.03;15.57;;;2.70;99.90;;;;;;4995198;28;20412;-70
2021/12/23 08:56:46;;;;;;;24.53;16.60;;;2.70;99.90;;;;;;4993031;28;20962;-71
2021/12/23 08:59:12;;;;;;;22.67;15.67;;;2.70;99.90;;;;;;4991903;28;20279;-71
2021/12/23 09:01:40;;;;;;;25.03;16.00;;;2.80;99.90;;;;;;4996985;28;20502;-71
2021/12/23 09:04:06;;;;;;;23.93;16.00;;;2.80;99.90;;;;;;4997251;28;20854;-71
2021/12/23 09:06:32;;;;;;;24.60;16.07;;;2.90;99.90;;;;;;4995900;28;20462;-67
2021/12/23 09:08:58;;;;;;;24.40;16.57;;;2.90;99.90;;;;;;4996867;28;20411;-68
2021/12/23 09:11:24;;;;;;;23.93;17.00;;;2.90;99.90;;;;;;4997815;28;20427;-70
2021/12/23 09:13:50;;;;;;;25.50;16.70;;;2.90;99.90;;;;;;4997725;28;20430;-70
2021/12/23 09:16:17;;;;;;;25.40;16.70;;;3.00;99.90;;;;;;4999122;28;20518;-71
2021/12/23 09:18:42;;;;;;;24.57;15.47;;;3.00;99.90;;;;;;4999959;28;20519;-70
2021/12/23 09:21:08;;;;;;;20.60;14.50;;;3.10;99.90;;;;;;5001042;28;20752;-71
2021/12/23 09:23:33;;;;;;;25.77;16.27;;;3.10;99.90;;;;;;4999507;28;20193;-71
2021/12/23 09:25:59;;;;;;;26.50;16.30;;;3.10;99.90;;;;;;5007090;28;20227;-70
2021/12/23 09:33:40;;;;;;;21.23;14.60;;;3.30;99.90;;;;;;4998514;28;20471;-71
2021/12/23 09:36:06;;;;;;;23.03;15.77;;;3.40;99.90;;;;;;4996511;28;20447;-72
2021/12/23 09:38:31;;;;;;;23.67;15.13;;;3.40;99.90;;;;;;4996922;28;20441;-72
2021/12/23 09:41:04;;;;;;;21.63;14.83;;;3.50;99.90;;;;;;4996665;28;20412;-71
2021/12/23 09:43:32;;;;;;;25.63;15.13;;;3.70;99.90;;;;;;4996827;28;20195;-70
2021/12/23 09:45:59;;;;;;;26.63;15.77;;;3.80;99.70;;;;;;4995413;28;20434;-72
2021/12/23 09:48:28;;;;;;;19.67;14.50;;;3.90;99.60;;;;;;4997067;28;20435;-69
2021/12/23 09:50:55;;;;;;;23.43;14.90;;;3.90;99.50;;;;;;4998379;28;20425;-70
2021/12/23 09:53:22;;;;;;;23.07;15.67;;;4.00;99.30;;;;;;5009417;28;20837;-69
2021/12/23 09:55:49;;;;;;;22.40;14.70;;;4.10;98.50;;;;;;4998759;28;20815;-69
2021/12/23 09:58:16;;;;;;;21.30;15.23;;;4.10;98.50;;;;;;4999701;28;20466;-69
2021/12/23 10:00:45;;;;;;;21.37;14.30;;;4.20;99.00;;;;;;5016654;28;20414;-70
2021/12/23 10:03:13;;;;;;;19.57;14.27;;;4.20;99.10;;;;;;5016942;28;20410;-70
2021/12/23 10:05:39;;;;;;;22.47;14.10;;;4.20;98.60;;;;;;5016117;28;20788;-70
2021/12/23 10:08:06;;;;;;;21.63;14.67;;;4.20;98.70;;;;;;5016255;28;20460;-72
2021/12/23 10:26:52;;;;;;;19.97;14.73;;;4.20;98.80;;;;;;5016290;28;20418;-71
2021/12/23 10:30:21;;;;;;;17.93;13.50;;;4.40;98.20;;;;;;5016735;28;20424;-69
2021/12/23 10:38:21;;;;;;;21.70;14.17;;;4.70;98.10;;;;;;5016440;28;20916;-71
2021/12/23 10:40:50;;;;;;;20.47;13.53;;;4.80;97.90;;;;;;4998246;28;20419;-70
2021/12/23 10:43:32;;;;;;;21.50;14.50;;;4.90;98.00;;;;;;5016598;28;20895;-71
2021/12/23 10:46:03;;;;;;;19.73;13.53;;;5.00;97.50;;;;;;5016575;28;20422;-70
2021/12/23 10:48:33;;;;;;;18.87;14.03;;;5.00;97.30;;;;;;5016883;28;20431;-70
2021/12/23 10:51:05;;;;;;;18.20;12.33;;;5.10;97.00;;;;;;5017111;28;20440;-69
2021/12/23 10:59:10;;;;;;;18.40;13.07;;;5.30;97.20;;;;;;4996742;28;20826;-72
2021/12/23 11:02:31;;;;;;;19.37;13.53;;;5.30;97.00;;;;;;4996051;28;20479;-69
2021/12/23 11:05:08;;;;;;;19.27;12.37;;;5.40;97.20;;;;;;4995879;28;20400;-70
2021/12/23 11:07:39;;;;;;;17.53;13.10;;;5.40;96.60;;;;;;4977676;28;20478;-72
2021/12/23 11:10:17;;;;;;;14.47;11.20;;;5.40;96.10;;;;;;4995549;28;20923;-70
2021/12/23 11:37:52;;;;;;;19.10;13.43;;;5.70;95.80;;;;;;4996536;28;21042;-71
2021/12/23 11:40:38;;;;;;;19.40;13.33;;;5.70;95.80;;;;;;4999860;28;20411;-71
2021/12/23 11:45:33;;;;;;;19.13;13.50;;;5.90;95.90;;;;;;4999949;28;20411;-71
2021/12/23 11:48:02;;;;;;;15.30;12.40;;;5.90;95.60;;;;;;4999595;28;20459;-72
2021/12/23 11:50:41;;;;;;;19.73;12.70;;;5.90;95.70;;;;;;5000072;28;20533;-72
2021/12/23 11:53:07;;;;;;;18.23;13.03;;;5.90;95.90;;;;;;5010569;28;20422;-71
2021/12/23 11:55:33;;;;;;;19.43;14.10;;;6.00;95.90;;;;;;5018725;28;20473;-71
2021/12/23 11:57:59;;;;;;;21.87;14.03;;;6.10;95.90;;;;;;5018470;28;20792;-70
2021/12/23 12:00:42;;;;;;;20.90;13.80;;;6.10;96.00;;;;;;5018040;28;20529;-71
2021/12/23 12:03:09;;;;;;;15.30;11.77;;;6.10;96.00;;;;;;5017809;28;20206;-70
2021/12/23 12:05:36;;;;;;;21.33;14.30;;;6.20;96.00;;;;;;5016728;28;20418;-69
2021/12/23 12:08:10;;;;;;;21.63;14.00;;;6.10;95.90;;;;;;5017907;28;20458;-70
2021/12/23 12:10:37;;;;;;;16.33;12.20;;;6.20;96.10;;;;;;5020711;28;20441;-70
2021/12/23 12:13:07;;;;;;;18.03;12.23;;;6.10;96.20;;;;;;4998929;28;20479;-69
2021/12/23 12:15:48;;;;;;;15.73;11.60;;;6.20;96.40;;;;;;4977121;28;20456;-70
2021/12/23 12:18:21;;;;;;;19.93;13.07;;;6.20;96.30;;;;;;4961409;28;21015;-70
2021/12/23 12:20:51;;;;;;;16.87;13.47;;;6.20;96.60;;;;;;4961482;28;20551;-68
2021/12/23 12:23:20;;;;;;;21.27;13.70;;;6.20;96.70;;;;;;4978888;28;20444;-72
2021/12/23 12:25:56;;;;;;;19.97;13.63;;;6.30;96.80;;;;;;4978827;28;20443;-70
2021/12/23 12:28:28;;;;;;;23.73;13.43;;;6.40;96.90;;;;;;4978920;28;20447;-71
2021/12/23 12:31:00;;;;;;;18.93;14.20;;;6.40;96.90;;;;;;4977383;28;20428;-72
2021/12/23 12:33:26;;;;;;;19.20;14.13;;;6.40;96.90;;;;;;4977630;28;20432;-71
2021/12/23 12:36:01;;;;;;;17.70;13.53;;;6.40;97.00;;;;;;4999321;28;20489;-71
2021/12/23 12:38:33;;;;;;;21.40;13.97;;;6.40;96.90;;;;;;5018640;28;20204;-72
2021/12/23 12:41:01;;;;;;;18.90;14.33;;;6.40;97.00;;;;;;5017678;28;20461;-71
2021/12/23 12:43:52;;;;;;;23.60;13.77;;;6.40;97.30;;;;;;4999748;28;20658;-71
2021/12/23 12:46:33;;;;;;;18.70;13.50;;;6.30;97.20;;;;;;5018283;28;20517;-70
2021/12/23 12:48:59;;;;;;;17.67;12.93;;;6.30;97.50;;;;;;5013162;28;20437;-71
2021/12/23 12:51:32;;;;;;;20.67;14.30;;;6.30;97.40;;;;;;4995576;28;20454;-71
2021/12/23 12:54:04;;;;;;;18.90;13.83;;;6.30;97.60;;;;;;5014220;28;20450;-70
2021/12/23 12:56:35;;;;;;;21.30;14.30;;;6.30;97.70;;;;;;5015317;28;20461;-71
2021/12/23 12:59:01;;;;;;;18.20;14.00;;;6.20;97.70;;;;;;5017096;28;20433;-70
2021/12/23 13:01:48;;;;;;;24.70;15.37;;;6.20;97.80;;;;;;4998014;28;20533;-70
2021/12/23 13:04:29;;;;;;;21.13;14.13;;;6.30;98.10;;;;;;5009485;28;20963;-72
2021/12/23 13:06:57;;;;;;;23.53;15.43;;;6.10;98.30;;;;;;4996877;28;20463;-71
2021/12/23 13:09:29;;;;;;;21.57;14.43;;;6.10;98.60;;;;;;4998893;28;20406;-70
2021/12/23 13:11:58;;;;;;;20.33;14.60;;;6.10;98.80;;;;;;4999089;28;20413;-72
2021/12/23 13:14:57;;;;;;;22.33;14.70;;;6.00;99.20;;;;;;4999372;28;20788;-71
2021/12/23 13:17:24;;;;;;;23.83;15.23;;;6.00;99.50;;;;;;4999313;28;20439;-71
2021/12/23 13:19:50;;;;;;;20.83;14.90;;;6.10;99.60;;;;;;4982196;28;20439;-69
2021/12/23 13:22:18;;;;;;;21.00;14.63;;;6.10;99.90;;;;;;4999809;28;20423;-71
2021/12/23 13:24:44;;;;;;;21.53;15.90;;;6.00;99.90;;;;;;5000868;28;20408;-69
2021/12/23 13:27:10;;;;;;;25.23;16.03;;;6.00;99.90;;;;;;4998970;28;20486;-71
2021/12/23 13:29:40;;;;;;;20.03;14.77;;;6.00;99.90;;;;;;4999733;28;20912;-70
2021/12/23 13:32:05;;;;;;;19.90;16.57;;;5.90;99.90;;;;;;4999496;28;20171;-72
2021/12/23 13:34:35;;;;;;;21.63;15.60;;;5.90;99.90;;;;;;5000626;28;20482;-73
2021/12/23 13:37:07;;;;;;;20.57;15.03;;;5.80;99.90;;;;;;4999965;28;20224;-72
2021/12/23 13:39:38;;;;;;;36.87;16.23;;;5.70;99.90;;;;;;5001064;28;20406;-70
2021/12/23 13:42:10;;;;;;;23.50;16.00;;;5.70;99.90;;;;;;5001416;28;20447;-69
2021/12/23 13:44:35;;;;;;;22.53;16.27;;;5.70;99.90;;;;;;5001416;28;20553;-71
2021/12/23 13:47:08;;;;;;;21.77;16.00;;;5.80;99.90;;;;;;5000009;28;20955;-71